MCNK1: Lightning C Nr Mccune, KS

Data processed at Wed May 22 2019 23:50


All information presented herein is the property of the government of the United States of America and may be revised or deleted at any time without prior notice.
Dissemination of this information without the expressed written consent of the Public Affairs Office, Tulsa District U.S. Army Corps of Engineers is strictly prohibited.
These data are gathered electronically and, as presented, have not undergone any form of quality control. These data are not guaranteed to be valid or correct.
Go to home page.
Go to station list.
Go to home page.

Downstream station:


Previous Day
Next Day
Current Day
    
SHEF ID:       MCNK1     LIGHTNING C NR MCCUNE, KS
STATION TYPE:  
Regulating: Stage =    14.50, Flow =     4070

                STAGE  RIV-FLOW  BAT-LOAD
                   ft       cfs      volt
              Ccp-Rev   Ccp-Rev   Ccp-Rev
(US/Central)
05/22 00:00     17.65     17753     12.83
05/22 01:00     17.64     17637     12.83
05/22 02:00     17.56     16734     12.83
05/22 03:00     17.50     16085     12.83
05/22 04:00     17.46     15664     12.83
05/22 05:00     17.38     14854     12.83
05/22 06:00     17.34     14464     12.83
05/22 07:00     17.27     13802     12.83
05/22 08:00     17.14     12647     12.83
05/22 09:00     17.12     12477     12.89
05/22 10:00     17.07     12062     12.89
05/22 11:00     16.96     11244     13.00
05/22 12:00     16.90     10868     12.95
05/22 13:00     16.79     10208     12.95
05/22 14:00     16.73      9864     13.07
05/22 15:00     16.66      9476     13.30
05/22 16:00     16.59      9102     13.18
05/22 17:00     16.52      8741     13.12
05/22 18:00     16.43      8296     13.07
05/22 19:00     16.36      7964     13.00
05/22 20:00     16.30      7690     12.95
05/22 21:00     16.25      7467     12.89
05/22 22:00     16.15      7040     12.89
05/22 23:00     16.11      6876     12.89